createdAt,value
2018-07-13T00:00:12.582Z,15.40
2018-07-13T00:01:12.793Z,17.50
2018-07-13T00:02:12.997Z,13.70
2018-07-13T00:03:13.189Z,15.50
2018-07-13T00:04:13.383Z,14.10
2018-07-13T00:05:13.571Z,15.40
2018-07-13T00:06:13.766Z,14.00
2018-07-13T00:07:13.977Z,13.90
2018-07-13T00:08:14.175Z,14.10
2018-07-13T00:09:14.396Z,14.70
2018-07-13T00:10:14.582Z,15.80
2018-07-13T00:11:14.796Z,13.70
2018-07-13T00:12:15.012Z,13.80
2018-07-13T00:13:15.213Z,14.10
2018-07-13T00:14:15.413Z,15.10
2018-07-13T00:15:15.630Z,15.90
2018-07-13T00:16:15.834Z,14.60
2018-07-13T00:17:16.048Z,14.70
2018-07-13T00:18:16.257Z,14.50
2018-07-13T00:19:16.442Z,13.70
2018-07-13T00:20:16.654Z,14.80
2018-07-13T00:21:16.847Z,13.40
2018-07-13T00:22:17.046Z,15.70
2018-07-13T00:23:17.249Z,14.60
2018-07-13T00:24:17.448Z,13.80
2018-07-13T00:25:17.636Z,14.70
2018-07-13T00:26:17.818Z,17.30
2018-07-13T00:27:18.018Z,16.20
2018-07-13T00:28:18.214Z,15.30
2018-07-13T00:29:18.417Z,15.40
2018-07-13T00:30:18.605Z,15.50
2018-07-13T00:31:18.814Z,15.40
2018-07-13T00:32:19.005Z,15.60
2018-07-13T00:33:19.215Z,14.20
2018-07-13T00:34:19.431Z,15.00
2018-07-13T00:35:19.628Z,15.80
2018-07-13T00:36:19.826Z,14.80
2018-07-13T00:37:20.008Z,14.10
2018-07-13T00:38:20.221Z,15.70
2018-07-13T00:39:20.405Z,15.70
2018-07-13T00:40:20.592Z,14.50
2018-07-13T00:41:20.806Z,14.10
2018-07-13T00:42:21.026Z,15.40
2018-07-13T00:43:21.235Z,14.30
2018-07-13T00:44:21.445Z,13.80
2018-07-13T00:45:21.631Z,16.50
2018-07-13T00:46:21.846Z,13.20
2018-07-13T00:47:22.064Z,13.50
2018-07-13T00:48:22.264Z,12.90
2018-07-13T00:49:22.467Z,15.20
2018-07-13T00:50:22.679Z,13.70
2018-07-13T00:51:22.894Z,13.20
2018-07-13T00:52:23.098Z,18.00
2018-07-13T00:53:23.296Z,13.50
2018-07-13T00:54:23.489Z,14.10
2018-07-13T00:55:23.678Z,12.60
2018-07-13T00:56:23.873Z,13.30
2018-07-13T00:57:24.088Z,15.50
2018-07-13T00:58:24.284Z,14.10
2018-07-13T00:59:24.484Z,15.10
2018-07-13T01:01:56.620Z,17.00
2018-07-13T01:02:56.808Z,17.20
2018-07-13T01:03:56.993Z,15.40
2018-07-13T01:04:57.197Z,16.30
2018-07-13T01:05:57.390Z,15.00
2018-07-13T01:06:57.592Z,17.10
2018-07-13T01:07:57.795Z,16.20
2018-07-13T01:08:58.000Z,14.80
2018-07-13T01:09:58.198Z,18.20
2018-07-13T01:10:58.393Z,16.70
2018-07-13T01:11:58.590Z,16.40
2018-07-13T01:12:58.795Z,15.80
2018-07-13T01:15:30.661Z,14.00
2018-07-13T01:16:30.837Z,14.70
2018-07-13T01:17:31.042Z,16.10
2018-07-13T01:18:31.241Z,15.10
2018-07-13T01:19:31.447Z,14.10
2018-07-13T01:20:31.645Z,14.40
2018-07-13T01:21:31.846Z,14.90
2018-07-13T01:22:32.080Z,17.10
2018-07-13T01:23:32.290Z,15.00
2018-07-13T01:24:32.496Z,16.20
2018-07-13T01:25:32.692Z,15.30
2018-07-13T01:26:32.892Z,14.60
2018-07-13T01:27:33.089Z,14.70
2018-07-13T01:28:33.292Z,15.80
2018-07-13T01:29:33.509Z,15.90
2018-07-13T01:30:33.704Z,15.60
2018-07-13T01:31:33.904Z,15.50
2018-07-13T01:32:34.115Z,14.10
2018-07-13T01:33:34.330Z,15.70
2018-07-13T01:34:34.535Z,15.30
2018-07-13T01:35:34.744Z,14.80
2018-07-13T01:36:34.959Z,15.90
2018-07-13T01:37:35.157Z,14.90
2018-07-13T01:38:35.352Z,16.30
2018-07-13T01:39:35.568Z,15.00
2018-07-13T01:40:35.774Z,15.40
2018-07-13T01:41:35.992Z,14.50
2018-07-13T01:42:36.178Z,17.50
2018-07-13T01:43:36.365Z,16.40
2018-07-13T01:44:36.558Z,15.50
2018-07-13T01:45:36.760Z,16.40
2018-07-13T01:46:36.970Z,14.40
2018-07-13T01:47:37.153Z,15.00
2018-07-13T01:48:37.341Z,14.60
2018-07-13T01:49:37.554Z,15.90
2018-07-13T01:50:37.754Z,17.40
2018-07-13T01:51:37.943Z,15.80
2018-07-13T01:52:38.146Z,14.90
2018-07-13T01:53:38.362Z,14.80
2018-07-13T01:54:38.556Z,15.70
2018-07-13T01:55:38.786Z,15.10
2018-07-13T01:56:38.965Z,16.30
2018-07-13T01:57:39.179Z,15.40
2018-07-13T01:58:39.382Z,15.30
2018-07-13T01:59:39.573Z,15.20
2018-07-13T02:00:39.768Z,15.90
2018-07-13T02:01:39.959Z,17.20
2018-07-13T02:02:40.159Z,14.40
2018-07-13T02:03:40.351Z,14.70
2018-07-13T02:04:40.544Z,15.00
2018-07-13T02:05:40.736Z,15.40
2018-07-13T02:06:40.924Z,14.60
2018-07-13T02:07:41.126Z,14.10
2018-07-13T02:08:41.321Z,15.10
2018-07-13T02:09:41.517Z,14.40
2018-07-13T02:10:41.704Z,15.40
2018-07-13T02:11:41.901Z,15.80
2018-07-13T02:12:42.116Z,15.20
2018-07-13T02:13:42.337Z,16.00
2018-07-13T02:14:42.539Z,16.20
2018-07-13T02:15:42.747Z,17.00
2018-07-13T02:16:42.952Z,15.90
2018-07-13T02:17:43.133Z,17.80
2018-07-13T02:18:43.334Z,16.10
2018-07-13T02:19:43.545Z,15.20
2018-07-13T02:20:43.756Z,16.40
2018-07-13T02:21:43.944Z,18.40
2018-07-13T02:22:44.148Z,17.30
2018-07-13T02:23:44.346Z,16.10
2018-07-13T02:24:44.558Z,16.70
2018-07-13T02:25:44.772Z,16.10
2018-07-13T02:26:44.958Z,16.90
2018-07-13T02:27:45.171Z,15.60
2018-07-13T02:28:45.351Z,14.90
2018-07-13T02:29:45.538Z,16.90
2018-07-13T02:30:45.741Z,15.50
2018-07-13T02:31:45.960Z,16.50
2018-07-13T02:32:46.138Z,15.90
2018-07-13T02:33:46.399Z,17.70
2018-07-13T02:34:46.530Z,15.30
2018-07-13T02:35:46.798Z,15.50
2018-07-13T02:36:46.887Z,14.80
2018-07-13T02:37:47.095Z,18.90
2018-07-13T02:38:47.284Z,16.00
2018-07-13T02:39:47.500Z,15.40
2018-07-13T02:40:47.692Z,18.50
2018-07-13T02:41:47.879Z,16.60
2018-07-13T02:42:48.073Z,18.80
2018-07-13T02:43:48.269Z,17.10
2018-07-13T02:44:48.483Z,17.80
2018-07-13T02:45:48.684Z,16.30
2018-07-13T02:46:48.875Z,19.30
2018-07-13T02:47:49.093Z,17.50
2018-07-13T02:48:49.297Z,16.60
2018-07-13T02:49:49.496Z,18.70
2018-07-13T02:50:49.682Z,15.60
2018-07-13T02:51:49.862Z,16.00
2018-07-13T02:52:50.071Z,15.50
2018-07-13T02:53:50.262Z,16.10
2018-07-13T02:54:50.476Z,18.10
2018-07-13T02:57:22.621Z,16.80
2018-07-13T02:58:22.793Z,17.60
2018-07-13T02:59:22.977Z,16.00
2018-07-13T03:00:23.165Z,16.20
2018-07-13T03:01:23.363Z,19.80
2018-07-13T03:02:23.553Z,20.10
2018-07-13T03:03:23.762Z,17.20
2018-07-13T03:04:23.970Z,18.00
2018-07-13T03:05:24.172Z,18.30
2018-07-13T03:06:24.372Z,17.60
2018-07-13T03:07:24.562Z,18.20
2018-07-13T03:08:24.740Z,16.80
2018-07-13T03:09:24.950Z,18.80
2018-07-13T03:10:25.138Z,18.40
2018-07-13T03:11:25.334Z,18.90
2018-07-13T03:12:25.524Z,19.40
2018-07-13T03:13:25.719Z,17.90
2018-07-13T03:14:25.921Z,18.40
2018-07-13T03:15:26.094Z,19.60
2018-07-13T03:16:26.297Z,20.00
2018-07-13T03:17:26.675Z,18.10
2018-07-13T03:18:26.673Z,18.60
2018-07-13T03:19:26.875Z,20.00
2018-07-13T03:20:27.094Z,18.50
2018-07-13T03:21:27.280Z,17.90
2018-07-13T03:22:27.493Z,18.10
2018-07-13T03:23:27.687Z,18.10
2018-07-13T03:24:27.980Z,18.00
2018-07-13T03:25:28.043Z,16.10
2018-07-13T03:26:28.230Z,17.90
2018-07-13T03:27:28.435Z,16.90
2018-07-13T03:28:28.626Z,16.60
2018-07-13T03:29:28.833Z,17.30
2018-07-13T03:30:29.054Z,16.60
2018-07-13T03:31:29.245Z,17.40
2018-07-13T03:32:29.459Z,17.10
2018-07-13T03:33:29.649Z,17.80
2018-07-13T03:34:29.834Z,16.40
2018-07-13T03:35:30.092Z,16.60
2018-07-13T03:36:30.173Z,17.10
2018-07-13T03:37:30.357Z,18.10
2018-07-13T03:38:30.636Z,17.90
2018-07-13T03:39:30.779Z,21.90
2018-07-13T03:40:30.964Z,18.50
2018-07-13T03:41:31.190Z,17.30
2018-07-13T03:42:31.373Z,17.60
2018-07-13T03:43:31.578Z,19.90
2018-07-13T03:44:31.765Z,16.30
2018-07-13T03:45:31.964Z,16.60
2018-07-13T03:46:32.155Z,16.50
2018-07-13T03:47:32.353Z,16.80
2018-07-13T03:48:32.545Z,18.10
2018-07-13T03:49:32.750Z,18.60
2018-07-13T03:50:32.953Z,19.80
2018-07-13T03:51:33.167Z,19.40
2018-07-13T03:52:33.372Z,18.00
2018-07-13T03:53:33.572Z,18.40
2018-07-13T03:54:33.761Z,17.30
2018-07-13T03:55:33.969Z,17.40
2018-07-13T03:56:34.236Z,15.90
2018-07-13T03:57:34.295Z,18.90
2018-07-13T03:58:34.496Z,18.70
2018-07-13T03:59:34.713Z,17.80
2018-07-13T04:00:34.985Z,21.00
2018-07-13T04:01:35.112Z,18.70
2018-07-13T04:02:35.303Z,16.50
2018-07-13T04:03:35.736Z,17.10
2018-07-13T04:04:35.714Z,18.00
2018-07-13T04:05:35.903Z,16.70
2018-07-13T04:06:36.261Z,20.30
2018-07-13T04:07:36.299Z,17.70
2018-07-13T04:08:36.504Z,17.30
2018-07-13T04:09:36.698Z,16.90
2018-07-13T04:10:36.913Z,16.50
2018-07-13T04:11:37.121Z,17.10
2018-07-13T04:12:37.314Z,17.80
2018-07-13T04:13:37.521Z,16.90
2018-07-13T04:14:37.747Z,19.20
2018-07-13T04:15:37.898Z,17.00
2018-07-13T04:16:38.086Z,17.80
2018-07-13T04:17:38.295Z,16.90
2018-07-13T04:18:38.503Z,16.30
2018-07-13T04:19:38.688Z,16.90
2018-07-13T04:20:38.878Z,16.00
2018-07-13T04:21:39.083Z,16.00
2018-07-13T04:22:39.276Z,17.10
2018-07-13T04:23:39.468Z,15.80
2018-07-13T04:24:39.648Z,18.00
2018-07-13T04:25:39.837Z,16.00
2018-07-13T04:26:40.039Z,16.50
2018-07-13T04:27:40.244Z,20.70
2018-07-13T04:28:40.491Z,17.30
2018-07-13T04:29:40.650Z,15.70
2018-07-13T04:30:40.867Z,17.70
2018-07-13T04:31:41.059Z,16.60
2018-07-13T04:32:41.261Z,15.30
2018-07-13T04:33:41.478Z,15.20
2018-07-13T04:34:41.668Z,14.50
2018-07-13T04:35:41.857Z,15.50
2018-07-13T04:36:42.068Z,15.40
2018-07-13T04:37:42.249Z,15.40
2018-07-13T04:38:42.454Z,15.00
2018-07-13T04:39:42.658Z,15.10
2018-07-13T04:40:42.905Z,13.90
2018-07-13T04:41:43.074Z,13.30
2018-07-13T04:42:43.259Z,17.00
2018-07-13T04:43:43.476Z,14.20
2018-07-13T04:44:43.667Z,14.10
2018-07-13T04:45:43.857Z,12.60
2018-07-13T04:46:44.054Z,14.00
2018-07-13T04:47:44.255Z,14.20
2018-07-13T04:48:44.433Z,12.70
2018-07-13T04:49:44.620Z,13.50
2018-07-13T04:50:44.819Z,13.80
2018-07-13T04:51:45.009Z,13.00
2018-07-13T04:52:45.202Z,13.80
2018-07-13T04:53:45.406Z,12.60
2018-07-13T04:54:45.601Z,12.60
2018-07-13T04:55:45.815Z,12.70
2018-07-13T04:56:46.025Z,11.70
2018-07-13T04:57:46.237Z,11.70
2018-07-13T04:58:46.458Z,11.60
2018-07-13T04:59:46.640Z,12.70
2018-07-13T05:00:46.841Z,13.00
2018-07-13T05:01:47.096Z,13.60
2018-07-13T05:02:47.250Z,11.10
2018-07-13T05:03:47.454Z,12.90
2018-07-13T05:04:47.656Z,11.20
2018-07-13T05:05:47.859Z,12.50
2018-07-13T05:06:48.057Z,13.70
2018-07-13T05:09:20.201Z,11.00
2018-07-13T05:10:20.380Z,12.00
2018-07-13T05:11:20.584Z,11.00
2018-07-13T05:12:20.797Z,11.80
2018-07-13T05:13:21.020Z,10.90
2018-07-13T05:14:21.212Z,11.90
2018-07-13T05:15:21.424Z,10.60
2018-07-13T05:16:21.637Z,10.70
2018-07-13T05:17:21.819Z,11.10
2018-07-13T05:18:22.091Z,11.50
2018-07-13T05:19:22.182Z,11.20
2018-07-13T05:20:22.394Z,10.80
2018-07-13T05:21:22.654Z,12.20
2018-07-13T05:22:22.798Z,11.00
2018-07-13T05:23:22.999Z,10.10
2018-07-13T05:24:23.176Z,13.20
2018-07-13T05:25:23.381Z,10.00
2018-07-13T05:26:23.606Z,10.50
2018-07-13T05:27:23.807Z,9.80
2018-07-13T05:28:24.017Z,11.10
2018-07-13T05:29:24.272Z,12.60
2018-07-13T05:30:24.465Z,10.60
2018-07-13T05:31:24.655Z,13.10
2018-07-13T05:32:24.925Z,10.70
2018-07-13T05:33:25.103Z,11.30
2018-07-13T05:34:25.313Z,13.30
2018-07-13T05:35:25.536Z,10.50
2018-07-13T05:36:25.738Z,10.30
2018-07-13T05:37:25.949Z,11.80
2018-07-13T05:38:26.209Z,10.00
2018-07-13T05:39:26.371Z,10.20
2018-07-13T05:40:26.564Z,11.40
2018-07-13T05:41:26.783Z,12.30
2018-07-13T05:42:26.999Z,10.00
2018-07-13T05:43:27.196Z,10.30
2018-07-13T05:44:27.375Z,12.30
2018-07-13T05:45:27.571Z,10.50
2018-07-13T05:46:27.755Z,10.10
2018-07-13T05:47:27.971Z,9.80
2018-07-13T05:48:28.184Z,9.90
2018-07-13T05:49:28.400Z,9.10
2018-07-13T05:50:28.615Z,12.70
2018-07-13T05:51:28.826Z,10.00
2018-07-13T05:52:29.020Z,9.40
2018-07-13T05:53:29.246Z,10.00
2018-07-13T05:54:29.434Z,11.40
2018-07-13T05:55:29.629Z,13.50
2018-07-13T05:56:29.818Z,8.90
2018-07-13T05:57:30.037Z,10.00
2018-07-13T06:00:02.251Z,9.90
2018-07-13T06:01:02.433Z,10.60
2018-07-13T06:02:02.679Z,10.00
2018-07-13T06:03:02.880Z,10.30
2018-07-13T06:04:03.112Z,9.70
2018-07-13T06:05:03.300Z,9.40
2018-07-13T06:06:03.496Z,11.10
2018-07-13T06:07:03.722Z,9.50
2018-07-13T06:08:03.898Z,9.90
2018-07-13T06:09:04.157Z,10.00
2018-07-13T06:10:04.357Z,14.30
2018-07-13T06:11:04.578Z,12.30
2018-07-13T06:12:04.774Z,12.70
2018-07-13T06:13:04.995Z,11.10
2018-07-13T06:14:05.201Z,10.20
2018-07-13T06:15:05.475Z,10.50
2018-07-13T06:16:05.617Z,8.70
2018-07-13T06:17:05.833Z,10.70
2018-07-13T06:18:06.033Z,10.60
2018-07-13T06:19:06.241Z,8.00
2018-07-13T06:20:06.435Z,8.60
2018-07-13T06:21:06.656Z,7.40
2018-07-13T06:22:06.868Z,9.10
2018-07-13T06:24:39.044Z,8.00
2018-07-13T06:25:39.213Z,8.80
2018-07-13T06:26:39.405Z,9.40
2018-07-13T06:27:39.613Z,8.50
2018-07-13T06:28:39.821Z,8.80
2018-07-13T06:29:40.026Z,7.80
2018-07-13T06:30:40.309Z,8.80
2018-07-13T06:31:40.382Z,7.40
2018-07-13T06:32:40.657Z,8.50
2018-07-13T06:33:40.791Z,8.90
2018-07-13T06:34:41.029Z,8.70
2018-07-13T06:35:41.204Z,8.10
2018-07-13T06:36:41.424Z,7.40
2018-07-13T06:37:41.634Z,9.40
2018-07-13T06:38:41.840Z,8.40
2018-07-13T06:39:42.057Z,7.70
2018-07-13T06:40:42.282Z,8.20
2018-07-13T06:41:42.500Z,9.80
2018-07-13T06:42:42.695Z,7.60
2018-07-13T06:45:14.879Z,7.20
2018-07-13T06:46:15.059Z,7.70
2018-07-13T06:47:15.273Z,7.20
2018-07-13T06:48:15.490Z,9.70
2018-07-13T06:49:15.713Z,8.40
2018-07-13T06:50:15.900Z,7.00
2018-07-13T06:51:16.206Z,7.90
2018-07-13T06:52:16.326Z,7.70
2018-07-13T06:53:16.555Z,7.30
2018-07-13T06:54:16.769Z,7.00
2018-07-13T06:55:16.990Z,6.90
2018-07-13T06:56:17.202Z,6.80
2018-07-13T06:57:17.422Z,6.80
2018-07-13T06:58:17.627Z,6.20
2018-07-13T06:59:17.841Z,6.80
2018-07-13T07:00:18.054Z,7.20
2018-07-13T07:01:18.256Z,6.00
2018-07-13T07:02:18.455Z,6.60
2018-07-13T07:03:18.711Z,7.20
2018-07-13T07:04:18.915Z,7.90
2018-07-13T07:05:19.126Z,6.30
2018-07-13T07:06:19.343Z,7.00
2018-07-13T07:07:19.542Z,5.80
2018-07-13T07:08:19.740Z,5.60
2018-07-13T07:09:20.043Z,6.40
2018-07-13T07:10:20.184Z,5.20
2018-07-13T07:11:20.266Z,6.10
2018-07-13T07:12:20.483Z,6.50
2018-07-13T07:13:20.692Z,5.70
2018-07-13T07:14:20.892Z,5.20
2018-07-13T07:15:21.094Z,6.90
2018-07-13T07:16:21.311Z,7.80
2018-07-13T07:17:21.510Z,7.00
2018-07-13T07:18:21.730Z,6.60
2018-07-13T07:19:21.955Z,4.80
2018-07-13T07:20:22.156Z,8.90
2018-07-13T07:21:22.377Z,6.20
2018-07-13T07:22:22.577Z,7.20
2018-07-13T07:23:22.771Z,8.30
2018-07-13T07:24:23.044Z,6.20
2018-07-13T07:25:23.184Z,5.90
2018-07-13T07:26:23.380Z,5.00
2018-07-13T07:28:55.541Z,6.60
2018-07-13T07:29:55.730Z,5.10
2018-07-13T07:30:55.953Z,6.10
2018-07-13T07:31:56.155Z,3.90
2018-07-13T07:32:56.368Z,5.70
2018-07-13T07:33:56.570Z,4.80
2018-07-13T07:34:56.778Z,5.20
2018-07-13T07:35:56.994Z,4.80
2018-07-13T07:36:57.218Z,4.70
2018-07-13T07:37:57.447Z,4.10
2018-07-13T07:40:29.675Z,5.90
2018-07-13T07:41:29.864Z,3.90
2018-07-13T07:42:30.084Z,4.60
2018-07-13T07:43:30.307Z,3.20
2018-07-13T07:44:30.501Z,4.20
2018-07-13T07:45:30.737Z,5.00
2018-07-13T07:46:30.924Z,5.80
2018-07-13T07:47:31.123Z,4.30
2018-07-13T07:48:31.328Z,6.50
2018-07-13T07:49:31.545Z,3.00
2018-07-13T07:50:31.769Z,3.60
2018-07-13T07:51:31.966Z,4.50
2018-07-13T07:52:32.189Z,4.10
2018-07-13T07:53:32.424Z,3.20
2018-07-13T07:54:32.561Z,3.20
2018-07-13T07:55:32.761Z,3.90
2018-07-13T07:56:32.995Z,3.20
2018-07-13T07:57:33.294Z,3.90
2018-07-13T07:58:33.443Z,3.00
2018-07-13T07:59:33.651Z,3.50
2018-07-13T08:00:33.873Z,2.70
2018-07-13T08:01:34.096Z,4.00
2018-07-13T08:02:34.325Z,2.40
2018-07-13T08:03:34.555Z,2.20
2018-07-13T08:04:34.799Z,2.50
2018-07-13T08:05:34.980Z,3.50
2018-07-13T08:06:35.477Z,4.10
2018-07-13T08:07:35.555Z,3.80
2018-07-13T08:08:35.694Z,3.00
2018-07-13T08:09:35.896Z,3.80
2018-07-13T08:10:36.116Z,4.10
2018-07-13T08:11:36.342Z,4.20
2018-07-13T08:12:36.545Z,2.40
2018-07-13T08:13:36.944Z,3.50
2018-07-13T08:14:37.090Z,3.80
2018-07-13T08:15:37.177Z,3.10
2018-07-13T08:16:37.402Z,3.30
2018-07-13T08:17:37.620Z,5.10
2018-07-13T08:18:37.835Z,2.30
2018-07-13T08:19:38.075Z,2.20
2018-07-13T08:20:38.274Z,2.50
2018-07-13T08:21:38.476Z,5.00
2018-07-13T08:22:38.697Z,2.90
2018-07-13T08:23:38.906Z,2.00
2018-07-13T08:24:39.114Z,2.60
2018-07-13T08:25:39.314Z,3.70
2018-07-13T08:26:39.544Z,4.60
2018-07-13T08:27:39.739Z,2.90
2018-07-13T08:28:39.942Z,3.90
2018-07-13T08:29:40.148Z,3.50
2018-07-13T08:30:40.363Z,2.70
2018-07-13T08:33:12.532Z,2.40
2018-07-13T08:34:12.718Z,2.50
2018-07-13T08:35:12.942Z,2.50
2018-07-13T08:36:13.164Z,2.50
2018-07-13T08:37:13.383Z,2.30
2018-07-13T08:38:13.575Z,3.40
2018-07-13T08:39:13.774Z,1.60
2018-07-13T08:40:13.980Z,2.00
2018-07-13T08:41:14.200Z,2.50
2018-07-13T08:42:14.423Z,2.60
2018-07-13T08:43:14.636Z,2.70
2018-07-13T08:44:14.833Z,1.90
2018-07-13T08:45:15.043Z,2.20
2018-07-13T08:46:15.237Z,3.00
2018-07-13T08:47:15.455Z,2.90
2018-07-13T08:48:15.667Z,2.30
2018-07-13T08:49:15.878Z,2.40
2018-07-13T08:50:16.109Z,3.40
2018-07-13T08:51:16.358Z,1.80
2018-07-13T08:52:16.511Z,2.20
2018-07-13T08:53:16.724Z,1.50
2018-07-13T08:54:16.951Z,1.30
2018-07-13T08:55:17.148Z,1.40
2018-07-13T08:56:17.464Z,1.50
2018-07-13T08:57:17.579Z,1.90
2018-07-13T08:58:17.777Z,1.20
2018-07-13T08:59:17.985Z,1.20
2018-07-13T09:00:18.215Z,1.40
2018-07-13T09:01:18.414Z,1.70
2018-07-13T09:02:18.637Z,1.50
2018-07-13T09:03:18.821Z,2.80
2018-07-13T09:04:19.034Z,1.90
2018-07-13T09:05:19.249Z,1.50
2018-07-13T09:06:19.504Z,1.10
2018-07-13T09:07:19.686Z,1.50
2018-07-13T09:08:19.915Z,2.10
2018-07-13T09:09:20.135Z,2.10
2018-07-13T09:10:20.337Z,1.40
2018-07-13T09:11:20.553Z,1.10
2018-07-13T09:12:20.803Z,1.40
2018-07-13T09:13:21.009Z,1.40
2018-07-13T09:14:21.226Z,1.50
2018-07-13T09:15:21.441Z,1.00
2018-07-13T09:16:21.658Z,2.10
2018-07-13T09:17:21.859Z,1.60
2018-07-13T09:18:22.209Z,1.30
2018-07-13T09:19:22.296Z,1.40
2018-07-13T09:20:22.505Z,1.70
2018-07-13T09:21:22.740Z,2.00
2018-07-13T09:22:22.962Z,1.20
2018-07-13T09:23:23.148Z,1.10
2018-07-13T09:24:23.349Z,1.20
2018-07-13T09:25:23.556Z,1.00
2018-07-13T09:26:23.777Z,2.50
2018-07-13T09:27:23.987Z,1.20
2018-07-13T09:28:24.205Z,1.20
2018-07-13T09:29:24.430Z,1.50
2018-07-13T09:30:24.673Z,1.20
2018-07-13T09:31:24.868Z,2.40
2018-07-13T09:32:25.079Z,1.70
2018-07-13T09:33:25.310Z,1.10
2018-07-13T09:34:25.512Z,1.10
2018-07-13T09:35:25.757Z,3.30
2018-07-13T09:36:25.966Z,1.50
2018-07-13T09:37:26.190Z,2.00
2018-07-13T09:38:26.518Z,1.20
2018-07-13T09:39:26.652Z,1.30
2018-07-13T09:40:26.870Z,1.20
2018-07-13T09:41:27.102Z,1.00
2018-07-13T09:42:27.326Z,1.50
2018-07-13T09:43:27.529Z,1.10
2018-07-13T09:44:27.756Z,1.80
2018-07-13T09:45:27.993Z,1.10
2018-07-13T09:46:28.212Z,1.20
2018-07-13T09:49:00.450Z,1.30
2018-07-13T09:50:00.743Z,2.10
2018-07-13T09:51:00.812Z,1.40
2018-07-13T09:52:01.045Z,1.10
2018-07-13T09:53:01.271Z,1.30
2018-07-13T09:54:01.763Z,1.10
2018-07-13T09:55:01.677Z,1.90
2018-07-13T09:56:01.878Z,1.70
2018-07-13T09:57:02.091Z,2.20
2018-07-13T09:58:02.320Z,1.00
2018-07-13T09:59:02.546Z,1.60
2018-07-13T10:00:02.775Z,1.20
2018-07-13T10:01:03.002Z,2.30
2018-07-13T10:02:03.241Z,1.20
2018-07-13T10:03:03.450Z,1.20
2018-07-13T10:04:03.646Z,1.20
2018-07-13T10:05:03.883Z,1.40
2018-07-13T10:06:04.100Z,1.20
2018-07-13T10:07:04.349Z,1.40
2018-07-13T10:08:04.552Z,2.20
2018-07-13T10:09:04.780Z,2.40
2018-07-13T10:10:05.008Z,2.30
2018-07-13T10:11:05.243Z,3.90
2018-07-13T10:12:05.445Z,1.10
2018-07-13T10:13:05.654Z,1.10
2018-07-13T10:14:05.864Z,2.20
2018-07-13T10:15:06.077Z,1.10
2018-07-13T10:16:06.292Z,1.40
2018-07-13T10:17:06.520Z,2.40
2018-07-13T10:18:06.736Z,1.20
2018-07-13T10:19:06.951Z,1.10
2018-07-13T10:20:07.274Z,1.10
2018-07-13T10:21:07.391Z,2.40
2018-07-13T10:22:07.584Z,1.30
2018-07-13T10:23:07.788Z,1.10
2018-07-13T10:24:08.013Z,1.70
2018-07-13T10:25:08.250Z,2.30
2018-07-13T10:26:08.473Z,1.60
2018-07-13T10:27:08.674Z,3.40
2018-07-13T10:28:08.902Z,1.70
2018-07-13T10:29:09.126Z,1.30
2018-07-13T10:30:09.323Z,1.30
2018-07-13T10:31:09.547Z,1.70
2018-07-13T10:32:09.766Z,1.40
2018-07-13T10:33:09.966Z,1.60
2018-07-13T10:34:10.188Z,1.20
2018-07-13T10:35:10.414Z,1.40
2018-07-13T10:36:10.637Z,1.90
2018-07-13T10:37:10.855Z,1.90
2018-07-13T10:38:11.075Z,1.40
2018-07-13T10:40:43.329Z,1.80
2018-07-13T10:41:43.528Z,1.50
2018-07-13T10:42:43.744Z,1.50
2018-07-13T10:43:43.942Z,1.80
2018-07-13T10:44:44.160Z,1.50
2018-07-13T10:45:44.391Z,1.30
2018-07-13T10:46:44.619Z,1.40
2018-07-13T10:47:44.924Z,1.40
2018-07-13T10:48:45.056Z,1.70
2018-07-13T10:49:45.273Z,1.60
2018-07-13T10:50:45.514Z,1.80
2018-07-13T10:51:45.723Z,2.30
2018-07-13T10:52:45.984Z,1.70
2018-07-13T10:53:46.180Z,2.20
2018-07-13T10:54:46.422Z,2.80
2018-07-13T10:55:46.619Z,2.00
2018-07-13T10:56:46.835Z,1.70
2018-07-13T10:57:47.034Z,2.40
2018-07-13T11:00:18.913Z,2.00
2018-07-13T11:01:19.104Z,2.10
2018-07-13T11:02:19.309Z,3.20
2018-07-13T11:03:19.529Z,1.80
2018-07-13T11:04:19.748Z,2.10
2018-07-13T11:05:19.950Z,1.70
2018-07-13T11:06:20.160Z,2.00
2018-07-13T11:07:20.376Z,3.00
2018-07-13T11:08:20.585Z,2.80
2018-07-13T11:09:20.800Z,2.00
2018-07-13T11:10:21.000Z,2.70
2018-07-13T11:12:53.631Z,2.80
2018-07-13T11:13:53.595Z,1.90
2018-07-13T11:14:53.645Z,2.20
2018-07-13T11:17:25.493Z,1.90
2018-07-13T11:18:25.676Z,3.10
2018-07-13T11:19:25.883Z,2.50
2018-07-13T11:20:26.100Z,2.30
2018-07-13T11:21:26.293Z,4.40
2018-07-13T11:22:26.491Z,2.80
2018-07-13T11:23:26.680Z,2.60
2018-07-13T11:24:26.878Z,2.40
2018-07-13T11:25:27.076Z,4.10
2018-07-13T11:26:27.277Z,2.40
2018-07-13T11:27:27.474Z,2.70
2018-07-13T11:28:27.693Z,2.70
2018-07-13T11:29:27.911Z,3.90
2018-07-13T11:30:28.201Z,2.50
2018-07-13T11:31:28.287Z,3.60
2018-07-13T11:32:28.485Z,3.90
2018-07-13T11:33:28.699Z,2.50
2018-07-13T11:34:28.910Z,2.30
2018-07-13T11:35:29.135Z,2.60
2018-07-13T11:36:29.333Z,3.00
2018-07-13T11:37:29.558Z,2.00
2018-07-13T11:38:29.728Z,2.30
2018-07-13T11:39:29.922Z,3.50
2018-07-13T11:40:30.116Z,3.10
2018-07-13T11:41:30.400Z,5.00
2018-07-13T11:42:30.483Z,2.40
2018-07-13T11:43:30.701Z,2.20
2018-07-13T11:44:30.923Z,1.80
2018-07-13T11:45:31.128Z,3.30
2018-07-13T11:46:31.343Z,2.00
2018-07-13T11:47:31.558Z,2.60
2018-07-13T11:48:31.759Z,2.10
2018-07-13T11:49:31.968Z,3.90
2018-07-13T11:50:32.176Z,4.70
2018-07-13T11:51:32.389Z,2.60
2018-07-13T11:52:32.614Z,4.60
2018-07-13T11:53:32.825Z,2.90
2018-07-13T11:54:33.039Z,2.20
2018-07-13T11:55:33.255Z,3.00
2018-07-13T11:56:33.451Z,2.60
2018-07-13T11:57:33.658Z,3.80
2018-07-13T11:58:33.880Z,4.60
2018-07-13T11:59:34.072Z,4.00
2018-07-13T12:00:34.321Z,2.20
2018-07-13T12:01:34.480Z,4.00
2018-07-13T12:02:34.699Z,5.00
2018-07-13T12:03:34.889Z,2.10
2018-07-13T12:04:35.091Z,2.60
2018-07-13T12:05:35.296Z,3.60
2018-07-13T12:06:35.492Z,2.30
2018-07-13T12:07:35.734Z,3.70
2018-07-13T12:08:35.914Z,2.70
2018-07-13T12:09:36.139Z,2.30
2018-07-13T12:10:36.364Z,4.80
2018-07-13T12:11:36.569Z,3.90
2018-07-13T12:12:36.824Z,4.30
2018-07-13T12:13:36.973Z,2.20
2018-07-13T12:16:09.191Z,2.30
2018-07-13T12:17:09.376Z,4.40
2018-07-13T12:18:09.590Z,2.20
2018-07-13T12:19:09.813Z,2.30
2018-07-13T12:20:10.015Z,2.40
2018-07-13T12:21:10.209Z,2.30
2018-07-13T12:22:10.414Z,3.90
2018-07-13T12:23:10.645Z,3.80
2018-07-13T12:24:10.832Z,3.40
2018-07-13T12:25:11.032Z,3.10
2018-07-13T12:26:11.237Z,2.10
2018-07-13T12:27:11.429Z,2.20
2018-07-13T12:28:11.615Z,3.50
2018-07-13T12:29:11.841Z,2.10
2018-07-13T12:30:12.049Z,2.50
2018-07-13T12:31:12.248Z,2.60
2018-07-13T12:32:12.505Z,2.10
2018-07-13T12:34:44.668Z,6.30
2018-07-13T12:35:44.726Z,5.20
2018-07-13T12:36:44.924Z,4.60
2018-07-13T12:37:45.134Z,3.40
2018-07-13T12:38:45.351Z,5.60
2018-07-13T12:39:45.645Z,3.40
2018-07-13T12:40:45.782Z,3.40
2018-07-13T12:41:46.004Z,2.90
2018-07-13T12:42:46.214Z,4.10
2018-07-13T12:43:46.438Z,2.20
2018-07-13T12:44:47.253Z,1.90
2018-07-13T12:45:46.833Z,2.10
2018-07-13T12:46:47.043Z,2.90
2018-07-13T12:47:47.234Z,3.60
2018-07-13T12:48:47.449Z,2.60
2018-07-13T12:49:47.662Z,2.70
2018-07-13T12:50:47.863Z,3.40
2018-07-13T12:51:48.074Z,2.70
2018-07-13T12:52:48.293Z,3.80
2018-07-13T12:53:48.566Z,2.20
2018-07-13T12:54:48.712Z,2.50
2018-07-13T12:55:48.921Z,3.90
2018-07-13T12:56:49.119Z,2.90
2018-07-13T12:57:49.341Z,4.10
2018-07-13T12:58:49.536Z,2.80
2018-07-13T12:59:49.739Z,2.00
2018-07-13T13:00:49.958Z,2.30
2018-07-13T13:01:50.171Z,1.90
2018-07-13T13:02:50.396Z,1.90
2018-07-13T13:03:50.623Z,2.20
2018-07-13T13:04:50.820Z,1.70
2018-07-13T13:05:51.020Z,2.40
2018-07-13T13:06:51.223Z,4.80
2018-07-13T13:07:51.437Z,4.00
2018-07-13T13:08:51.626Z,1.80
2018-07-13T13:09:51.850Z,1.90
2018-07-13T13:12:24.001Z,2.90
2018-07-13T13:13:24.189Z,2.00
2018-07-13T13:14:24.411Z,2.00
2018-07-13T13:15:24.735Z,3.60
2018-07-13T13:16:24.839Z,2.10
2018-07-13T13:17:25.033Z,2.80
2018-07-13T13:18:25.223Z,4.10
2018-07-13T13:19:25.424Z,2.40
2018-07-13T13:20:25.624Z,1.90
2018-07-13T13:21:25.822Z,3.50
2018-07-13T13:22:26.041Z,2.40
2018-07-13T13:23:26.250Z,1.60
2018-07-13T13:24:26.462Z,3.00
2018-07-13T13:25:26.678Z,2.00
2018-07-13T13:26:26.876Z,3.30
2018-07-13T13:27:27.074Z,3.00
2018-07-13T13:28:27.303Z,2.40
2018-07-13T13:29:27.501Z,2.80
2018-07-13T13:30:27.714Z,3.00
2018-07-13T13:31:27.935Z,2.20
2018-07-13T13:32:28.143Z,3.20
2018-07-13T13:33:28.327Z,2.10
2018-07-13T13:34:28.552Z,4.60
2018-07-13T13:35:28.753Z,6.70
2018-07-13T13:36:28.949Z,2.00